Time;durP1;ratioP1;P1;durP2;ratioP2;P2;SDS_P1;SDS_P2;PMS_P1;PMS_P2;Temp;Humidity;BMP_temperature;BMP_pressure;BME280_temperature;BME280_humidity;BME280_pressure;Samples;Min_cycle;Max_cycle;Signal;HPM_P1;HPM_P2
2023/05/05 00:02:13;;;;;;;1.20;1.20;;;;;;;13.52;92.74;97246.66;5044438;28;20073;-69
2023/05/05 00:04:40;;;;;;;1.20;1.20;;;;;;;13.42;93.58;97254.91;5044193;28;20514;-68
2023/05/05 00:07:06;;;;;;;1.10;1.10;;;;;;;13.24;94.61;97251.97;5043886;28;20604;-69
2023/05/05 00:09:33;;;;;;;0.98;0.98;;;;;;;13.17;96.73;97249.09;5042655;28;20311;-68
2023/05/05 00:12:00;;;;;;;1.10;1.10;;;;;;;13.26;96.40;97251.59;5044263;28;20142;-67
2023/05/05 00:14:26;;;;;;;1.10;1.10;;;;;;;13.12;96.32;97235.53;5044173;28;20049;-68
2023/05/05 00:16:53;;;;;;;1.00;1.00;;;;;;;12.74;96.93;97196.19;5043057;28;20053;-65
2023/05/05 00:19:20;;;;;;;1.20;1.20;;;;;;;13.16;97.10;97230.81;5042683;28;20076;-67
2023/05/05 00:21:46;;;;;;;1.20;1.20;;;;;;;13.02;96.21;97216.78;5044194;28;20496;-67
2023/05/05 00:24:13;;;;;;;1.30;1.30;;;;;;;13.43;95.38;97256.50;5044108;28;20110;-68
2023/05/05 00:26:40;;;;;;;0.90;0.90;;;;;;;13.27;96.22;97247.59;5044403;28;20051;-68
2023/05/05 00:29:06;;;;;;;1.20;1.20;;;;;;;13.25;96.46;97234.06;5043690;28;20128;-68
2023/05/05 00:31:33;;;;;;;1.25;1.25;;;;;;;13.51;96.23;97252.59;5042785;28;20053;-69
2023/05/05 00:34:00;;;;;;;1.10;1.10;;;;;;;13.58;95.19;97253.47;5044242;28;20151;-69
2023/05/05 00:36:27;;;;;;;1.10;1.10;;;;;;;13.28;95.56;97188.78;5044198;28;20073;-68
2023/05/05 00:38:53;;;;;;;1.10;1.10;;;;;;;13.63;93.91;97238.38;5042714;28;20060;-68
2023/05/05 00:41:20;;;;;;;1.20;1.20;;;;;;;13.17;93.57;97151.75;5043998;28;20566;-68
2023/05/05 00:43:47;;;;;;;1.17;1.17;;;;;;;13.30;92.97;97172.53;5042640;28;20052;-68
2023/05/05 00:46:25;;;;;;;1.10;1.10;;;;;;;13.73;93.27;97253.56;5044204;28;20080;-68
2023/05/05 00:48:53;;;;;;;1.20;1.20;;;;;;;13.43;92.91;97207.22;5042723;28;20432;-68
2023/05/05 00:51:20;;;;;;;1.10;1.10;;;;;;;13.57;92.21;97207.34;5044207;28;20067;-68
2023/05/05 00:53:48;;;;;;;1.10;1.10;;;;;;;13.86;92.33;97246.53;5043522;28;20044;-69
2023/05/05 00:56:16;;;;;;;1.20;1.20;;;;;;;13.94;91.55;97248.97;5042124;28;20088;-68
2023/05/05 00:58:43;;;;;;;1.20;1.20;;;;;;;13.49;91.74;97191.75;5042135;28;20463;-68
2023/05/05 01:01:14;;;;;;;1.30;1.30;;;;;;;13.89;92.29;97257.69;5042199;28;20678;-67
2023/05/05 01:03:41;;;;;;;1.10;1.10;;;;;;;13.98;90.90;97251.78;5043745;28;20490;-68
2023/05/05 01:06:26;;;;;;;1.25;1.25;;;;;;;13.99;90.78;97256.19;5043915;28;20897;-69
2023/05/05 01:09:11;;;;;;;1.10;1.10;;;;;;;13.86;91.33;97249.31;5043678;28;20061;-69
2023/05/05 01:12:02;;;;;;;1.10;1.10;;;;;;;13.77;91.99;97248.84;5042199;28;20114;-68
2023/05/05 01:14:39;;;;;;;1.10;1.10;;;;;;;13.73;92.44;97239.66;5042528;28;20540;-67
2023/05/05 01:17:16;;;;;;;1.10;1.10;;;;;;;13.33;92.46;97168.16;5043580;28;20111;-67
2023/05/05 01:20:12;;;;;;;1.10;1.10;;;;;;;13.86;89.32;97238.16;5043381;28;20435;-68
2023/05/05 01:22:44;;;;;;;1.05;1.05;;;;;;;13.19;90.37;97137.44;5043703;28;20061;-67
2023/05/05 01:25:23;;;;;;;1.20;1.20;;;;;;;13.74;89.86;97238.50;5043159;28;20048;-68
2023/05/05 01:28:23;;;;;;;1.10;1.10;;;;;;;13.82;89.65;97234.53;5043446;28;20530;-69
2023/05/05 01:31:00;;;;;;;1.20;1.20;;;;;;;13.71;88.05;97284.59;5041931;28;20140;-68
2023/05/05 01:33:33;;;;;;;1.30;1.30;;;;;;;13.72;88.55;97221.38;5042302;28;20482;-69
2023/05/05 01:36:10;;;;;;;1.10;1.10;;;;;;;13.68;88.35;97197.09;5043416;28;20644;-69
2023/05/05 01:38:41;;;;;;;1.10;1.10;;;;;;;13.56;87.50;97169.53;5042536;28;20986;-69
2023/05/05 01:41:15;;;;;;;1.17;1.17;;;;;;;13.63;86.68;97171.56;5042767;28;20575;-69
2023/05/05 01:43:45;;;;;;;1.20;1.20;;;;;;;13.87;87.26;97221.06;5046965;28;20040;-68
2023/05/05 01:46:13;;;;;;;1.15;1.15;;;;;;;13.95;87.19;97210.78;5047548;28;20472;-69
2023/05/05 01:48:41;;;;;;;1.23;1.23;;;;;;;13.36;87.00;97118.13;5047092;28;20053;-69
2023/05/05 01:51:10;;;;;;;1.25;1.25;;;;;;;14.00;86.73;97202.88;5046772;28;20108;-68
2023/05/05 01:53:38;;;;;;;1.13;1.13;;;;;;;13.88;86.25;97188.47;5046836;28;20506;-69
2023/05/05 01:56:07;;;;;;;1.20;1.20;;;;;;;13.67;85.56;97145.34;5046301;28;20060;-68
2023/05/05 01:58:36;;;;;;;1.17;1.17;;;;;;;13.91;85.83;97194.03;5046521;28;20052;-67
2023/05/05 02:01:03;;;;;;;1.10;1.10;;;;;;;13.91;85.02;97188.47;5046220;28;20528;-68
2023/05/05 02:03:32;;;;;;;1.00;1.00;;;;;;;13.87;85.49;97192.41;5046642;28;20047;-68
2023/05/05 02:06:00;;;;;;;1.13;1.13;;;;;;;13.81;85.75;97200.34;5046166;28;20087;-69
2023/05/05 02:08:28;;;;;;;1.10;1.10;;;;;;;13.07;86.37;97096.81;5045350;28;20136;-68
2023/05/05 02:10:56;;;;;;;1.10;1.10;;;;;;;13.62;87.43;97192.25;5046217;28;20126;-68
2023/05/05 02:13:24;;;;;;;1.10;1.10;;;;;;;13.31;87.35;97154.63;5046574;28;20040;-68
2023/05/05 02:15:53;;;;;;;1.17;1.17;;;;;;;13.51;88.20;97186.59;5046259;28;20132;-68
2023/05/05 02:18:21;;;;;;;1.05;1.05;;;;;;;13.50;88.16;97190.56;5040579;28;20054;-69
2023/05/05 02:20:48;;;;;;;1.00;1.00;;;;;;;13.47;88.04;97196.91;5024705;28;20057;-68
2023/05/05 02:23:15;;;;;;;1.10;1.10;;;;;;;13.09;88.43;97152.88;5026561;28;20465;-68
2023/05/05 02:25:47;;;;;;;1.10;1.10;;;;;;;13.28;88.65;97194.34;5026411;28;20136;-69
2023/05/05 02:28:25;;;;;;;1.10;1.10;;;;;;;13.13;89.22;97181.53;5025148;28;20057;-69
2023/05/05 02:30:58;;;;;;;1.10;1.10;;;;;;;13.17;89.59;97199.03;5024783;28;20088;-69
2023/05/05 02:33:26;;;;;;;;;;;;;;;13.15;89.28;97201.38;5026544;28;20057;-68
2023/05/05 02:35:54;;;;;;;1.00;1.00;;;;;;;12.43;90.20;97114.06;5026002;28;19960;-67
2023/05/05 02:38:28;;;;;;;1.10;1.10;;;;;;;12.55;91.08;97147.13;5024685;28;20513;-68
2023/05/05 02:40:56;;;;;;;1.10;1.10;;;;;;;12.87;90.70;97206.63;5023151;28;20059;-68
2023/05/05 02:43:26;;;;;;;1.20;1.20;;;;;;;12.71;91.89;97196.94;5023970;28;20144;-69
2023/05/05 02:45:53;;;;;;;1.00;1.00;;;;;;;12.80;91.67;97198.25;5023234;28;20104;-69
2023/05/05 02:48:20;;;;;;;1.00;1.00;;;;;;;12.63;91.89;97179.38;5024590;28;20080;-68
2023/05/05 02:50:46;;;;;;;1.02;1.02;;;;;;;12.76;91.81;97194.59;5024776;28;20077;-69
2023/05/05 02:53:13;;;;;;;1.00;1.00;;;;;;;12.82;91.41;97204.19;5030445;28;20478;-68
2023/05/05 02:56:32;;;;;;;1.20;1.20;;;;;;;12.85;90.04;97192.31;5045156;28;20064;-68
2023/05/05 02:59:11;;;;;;;1.10;1.10;;;;;;;12.67;90.58;97202.47;5044585;28;20080;-68
2023/05/05 03:02:06;;;;;;;0.90;0.90;;;;;;;12.46;91.28;97191.09;5043878;28;20578;-68
2023/05/05 03:05:08;;;;;;;1.08;1.08;;;;;;;12.54;91.16;97192.78;5045130;28;20515;-68
2023/05/05 03:08:00;;;;;;;0.90;0.90;;;;;;;12.52;90.14;97206.22;5048140;28;20044;-67
2023/05/05 03:10:39;;;;;;;0.90;0.90;;;;;;;12.00;91.17;97139.72;5045107;28;20049;-69
2023/05/05 03:13:10;;;;;;;1.00;1.00;;;;;;;12.38;91.40;97194.94;5045190;28;20080;-67
2023/05/05 03:15:51;;;;;;;1.00;1.00;;;;;;;12.45;91.28;97195.06;5043811;28;20240;-68
2023/05/05 03:18:21;;;;;;;1.10;1.10;;;;;;;12.58;90.92;97193.63;5043506;28;20434;-68
2023/05/05 03:20:49;;;;;;;1.00;1.00;;;;;;;12.52;91.07;97200.69;5045157;28;20049;-69
2023/05/05 03:23:19;;;;;;;0.90;0.90;;;;;;;12.07;90.30;97123.16;5044722;28;20087;-68
2023/05/05 03:25:48;;;;;;;0.90;0.90;;;;;;;12.49;88.97;97201.44;5044932;28;20044;-68
2023/05/05 03:28:16;;;;;;;1.00;1.00;;;;;;;11.83;96.04;97206.91;5045162;28;20053;-67
2023/05/05 03:30:43;;;;;;;0.90;0.90;;;;;;;11.46;100.00;97192.03;5045024;28;20091;-69
2023/05/05 03:33:10;;;;;;;0.90;0.90;;;;;;;11.83;100.00;97218.81;5044994;28;20114;-68
2023/05/05 03:35:37;;;;;;;1.00;1.00;;;;;;;11.63;100.00;97197.09;5044837;28;20056;-68
2023/05/05 03:38:04;;;;;;;0.90;0.90;;;;;;;11.97;100.00;97215.44;5044611;28;20515;-69
2023/05/05 03:40:30;;;;;;;1.00;1.00;;;;;;;12.14;100.00;97214.88;5044633;28;20118;-68
2023/05/05 03:43:09;;;;;;;0.90;0.90;;;;;;;12.12;100.00;97220.03;5044757;28;20055;-68
2023/05/05 03:45:36;;;;;;;1.00;1.00;;;;;;;12.24;100.00;97217.00;5044748;28;20060;-69
2023/05/05 03:48:03;;;;;;;0.88;0.88;;;;;;;12.34;99.31;97216.34;5043162;28;20128;-68
2023/05/05 03:50:30;;;;;;;1.10;1.10;;;;;;;12.48;98.34;97216.53;5044889;28;20085;-70
2023/05/05 03:52:56;;;;;;;0.93;0.93;;;;;;;12.52;97.53;97211.78;5043866;28;20574;-68
2023/05/05 03:55:23;;;;;;;1.00;1.00;;;;;;;12.68;95.77;97220.72;5044222;28;20531;-69
2023/05/05 03:57:50;;;;;;;0.90;0.90;;;;;;;12.07;96.20;97107.31;5044262;28;20091;-69
2023/05/05 04:00:17;;;;;;;1.10;1.10;;;;;;;12.76;95.66;97222.41;5042102;28;20471;-68
2023/05/05 04:02:44;;;;;;;1.00;1.00;;;;;;;12.80;94.77;97228.81;5023004;28;20053;-69
2023/05/05 04:05:11;;;;;;;1.02;1.02;;;;;;;12.91;94.32;97221.41;5024283;28;20087;-69
2023/05/05 04:07:37;;;;;;;1.00;1.00;;;;;;;13.05;92.67;97229.91;5024308;28;20428;-66
2023/05/05 04:10:05;;;;;;;1.10;1.10;;;;;;;12.66;92.92;97159.16;5022967;28;20053;-69
2023/05/05 04:12:32;;;;;;;1.10;1.10;;;;;;;13.11;93.31;97231.16;5022607;28;20107;-68
2023/05/05 04:14:59;;;;;;;1.10;1.10;;;;;;;12.77;92.68;97176.75;5024124;28;20136;-68
2023/05/05 04:17:25;;;;;;;1.10;1.10;;;;;;;12.71;96.76;97238.63;5024120;28;20583;-68
2023/05/05 04:19:52;;;;;;;0.93;0.93;;;;;;;12.37;98.77;97192.56;5024345;28;20083;-68
2023/05/05 04:22:19;;;;;;;1.00;1.00;;;;;;;13.16;95.66;97225.25;5024177;28;20087;-69
2023/05/05 04:24:46;;;;;;;1.00;1.00;;;;;;;12.87;95.59;97228.88;5022811;28;20064;-68
2023/05/05 04:27:12;;;;;;;0.90;0.90;;;;;;;12.68;96.94;97219.91;5023426;28;20476;-68
2023/05/05 04:29:40;;;;;;;1.05;1.05;;;;;;;12.50;96.17;97191.94;5023307;28;20061;-67
2023/05/05 04:32:06;;;;;;;1.00;1.00;;;;;;;12.93;95.77;97227.34;5024149;28;20500;-68
2023/05/05 04:34:33;;;;;;;1.13;1.13;;;;;;;13.35;94.38;97230.59;5024372;28;20145;-67
2023/05/05 04:37:00;;;;;;;1.00;1.00;;;;;;;13.40;92.58;97227.44;5024121;28;20068;-68
2023/05/05 04:39:26;;;;;;;1.20;1.20;;;;;;;12.96;91.19;97153.50;5022964;28;20421;-67
2023/05/05 04:41:53;;;;;;;1.00;1.00;;;;;;;13.49;91.15;97227.94;5023174;28;20061;-68
2023/05/05 04:44:20;;;;;;;1.00;1.00;;;;;;;13.75;90.31;97237.28;5023685;28;20057;-68
2023/05/05 04:46:46;;;;;;;1.20;1.20;;;;;;;13.96;88.81;97234.66;5042551;28;20059;-69
2023/05/05 04:49:13;;;;;;;1.10;1.10;;;;;;;13.43;87.85;97132.09;5041678;28;20132;-69
2023/05/05 04:51:41;;;;;;;1.17;1.17;;;;;;;14.22;87.59;97232.44;5041156;28;20087;-68
2023/05/05 04:54:07;;;;;;;1.25;1.25;;;;;;;14.38;85.85;97234.94;5041498;28;20496;-68
2023/05/05 04:56:34;;;;;;;1.20;1.20;;;;;;;14.51;83.97;97239.00;5041632;28;20350;-67
2023/05/05 04:59:01;;;;;;;1.30;1.30;;;;;;;14.44;83.83;97238.97;5042286;28;20057;-69
2023/05/05 05:01:28;;;;;;;1.30;1.30;;;;;;;14.55;83.51;97234.22;5043505;28;20088;-70
2023/05/05 05:03:54;;;;;;;1.30;1.30;;;;;;;14.65;83.30;97237.06;5043388;28;20110;-67
2023/05/05 05:06:21;;;;;;;1.20;1.20;;;;;;;14.38;82.16;97173.63;5043993;28;20462;-69
2023/05/05 05:08:48;;;;;;;1.33;1.33;;;;;;;14.90;81.67;97234.38;5043751;28;20060;-69
2023/05/05 05:11:14;;;;;;;1.10;1.10;;;;;;;15.00;81.13;97228.81;5042350;28;20048;-69
2023/05/05 05:13:41;;;;;;;1.30;1.30;;;;;;;15.17;78.02;97224.47;5042305;28;20049;-68
2023/05/05 05:16:08;;;;;;;1.40;1.40;;;;;;;15.35;76.25;97228.09;5043041;28;20088;-68
2023/05/05 05:18:34;;;;;;;1.40;1.40;;;;;;;15.08;75.43;97157.88;5047522;28;20110;-68
2023/05/05 05:21:02;;;;;;;1.40;1.40;;;;;;;15.53;74.94;97223.34;5047494;28;20053;-68
2023/05/05 05:23:28;;;;;;;1.35;1.35;;;;;;;15.81;73.09;97226.16;5047148;28;20894;-68
2023/05/05 05:25:56;;;;;;;1.50;1.50;;;;;;;15.86;72.61;97230.53;5047284;28;20060;-69
2023/05/05 05:28:22;;;;;;;1.55;1.55;;;;;;;16.06;71.79;97234.53;5047033;28;20053;-69
2023/05/05 05:30:50;;;;;;;1.40;1.40;;;;;;;16.09;71.32;97228.13;5040742;28;20053;-68
2023/05/05 05:33:17;;;;;;;1.48;1.48;;;;;;;16.21;70.84;97236.06;5045305;28;20083;-68
2023/05/05 05:35:44;;;;;;;1.70;1.70;;;;;;;16.38;70.41;97238.84;5045650;28;20118;-68
2023/05/05 05:38:11;;;;;;;1.50;1.50;;;;;;;16.48;70.47;97240.84;5046993;28;20550;-68
2023/05/05 05:40:37;;;;;;;1.50;1.50;;;;;;;16.38;69.42;97236.03;5038782;28;20056;-68
2023/05/05 05:43:04;;;;;;;1.50;1.50;;;;;;;16.33;69.74;97200.09;5047234;28;20053;-66
2023/05/05 05:45:31;;;;;;;1.50;1.50;;;;;;;16.51;68.99;97240.03;5046798;28;20060;-65
2023/05/05 05:47:57;;;;;;;1.65;1.65;;;;;;;16.25;69.11;97187.34;5047392;28;20091;-67
2023/05/05 05:50:27;;;;;;;1.40;1.40;;;;;;;16.29;69.70;97232.88;5046433;28;20456;-66
2023/05/05 05:52:55;;;;;;;1.50;1.50;;;;;;;15.89;71.39;97236.13;5046831;28;20045;-66
2023/05/05 05:55:22;;;;;;;1.52;1.52;;;;;;;15.86;72.13;97230.53;5045586;28;20056;-59
2023/05/05 05:57:49;;;;;;;1.60;1.60;;;;;;;16.32;70.58;97237.66;5045904;28;20882;-59
2023/05/05 06:00:15;;;;;;;1.50;1.50;;;;;;;16.66;68.62;97237.19;5045082;28;20053;-58
2023/05/05 06:02:42;;;;;;;1.70;1.70;;;;;;;16.09;68.49;97183.41;5045483;28;20049;-60
2023/05/05 06:05:09;;;;;;;1.52;1.52;;;;;;;16.81;67.69;97235.91;5044447;28;20487;-58
2023/05/05 06:07:36;;;;;;;1.60;1.60;;;;;;;17.17;65.83;97256.94;5045370;28;20049;-59
2023/05/05 06:10:03;;;;;;;1.45;1.45;;;;;;;16.62;66.05;97231.59;5045546;28;20053;-61
2023/05/05 06:12:49;;;;;;;1.77;1.77;;;;;;;17.05;64.68;97247.00;5045112;28;20048;-58
2023/05/05 06:15:16;;;;;;;1.70;1.70;;;;;;;17.10;65.12;97215.00;5043939;28;20048;-59
2023/05/05 06:17:42;;;;;;;1.60;1.60;;;;;;;16.75;64.12;97198.38;5043149;28;20049;-59
2023/05/05 06:20:10;;;;;;;1.70;1.70;;;;;;;16.76;63.98;97166.38;5043160;28;20045;-59
2023/05/05 06:22:36;;;;;;;1.80;1.80;;;;;;;17.21;64.87;97233.31;5044607;28;20486;-59
2023/05/05 06:25:03;;;;;;;1.67;1.67;;;;;;;17.64;61.96;97228.25;5041672;28;20048;-63
2023/05/05 06:27:30;;;;;;;1.92;1.92;;;;;;;18.21;60.72;97243.34;5037831;28;20149;-60
2023/05/05 06:29:56;;;;;;;1.80;1.80;;;;;;;18.47;60.11;97248.34;5023714;28;20049;-60
2023/05/05 06:32:23;;;;;;;1.67;1.67;;;;;;;18.26;58.82;97242.91;5022598;28;20068;-59
2023/05/05 06:34:50;;;;;;;1.88;1.88;;;;;;;17.84;60.59;97246.09;5023771;28;20520;-60
2023/05/05 06:37:16;;;;;;;1.80;1.80;;;;;;;17.48;61.26;97241.97;5024134;28;20060;-60
2023/05/05 06:39:43;;;;;;;1.83;1.83;;;;;;;17.72;61.67;97246.63;5024848;28;20418;-61
2023/05/05 06:42:09;;;;;;;1.63;1.63;;;;;;;18.06;60.37;97250.31;5025720;28;20540;-59
2023/05/05 06:44:36;;;;;;;1.77;1.77;;;;;;;18.16;59.58;97255.03;5025877;28;20057;-60
2023/05/05 06:47:03;;;;;;;1.77;1.77;;;;;;;18.12;59.59;97254.28;5025533;28;20164;-60
2023/05/05 06:49:30;;;;;;;1.83;1.83;;;;;;;18.00;59.20;97260.41;5038023;28;20124;-58
2023/05/05 06:51:56;;;;;;;1.90;1.90;;;;;;;17.32;60.42;97171.66;5032264;28;20057;-60
2023/05/05 06:54:23;;;;;;;1.60;1.60;;;;;;;15.15;60.57;96901.19;5044181;28;20588;-62
2023/05/05 06:56:49;;;;;;;1.70;1.70;;;;;;;16.59;61.16;97174.47;5029807;28;20567;-67
2023/05/05 06:59:16;;;;;;;1.40;1.40;;;;;;;16.65;61.05;97250.38;5025904;28;20053;-65
2023/05/05 07:01:43;;;;;;;1.60;1.60;;;;;;;16.85;60.99;97250.72;5028683;28;20068;-65
2023/05/05 07:04:10;;;;;;;1.67;1.67;;;;;;;16.85;61.50;97254.28;5041908;28;20126;-59
2023/05/05 07:06:36;;;;;;;1.77;1.77;;;;;;;14.54;60.65;96842.38;5045425;28;20179;-68
2023/05/05 07:09:03;;;;;;;1.60;1.60;;;;;;;16.46;61.23;97113.81;5039963;28;20115;-60
2023/05/05 07:11:30;;;;;;;1.58;1.58;;;;;;;17.48;61.53;97248.38;5050896;28;20123;-59
2023/05/05 07:13:56;;;;;;;1.77;1.77;;;;;;;17.69;59.91;97241.81;5025836;28;20104;-59
2023/05/05 07:16:24;;;;;;;1.60;1.60;;;;;;;17.27;62.12;97248.50;5028399;28;20185;-58
2023/05/05 07:18:50;;;;;;;1.38;1.38;;;;;;;17.38;61.48;97254.00;5038414;28;20036;-59
2023/05/05 07:21:17;;;;;;;1.90;1.90;;;;;;;17.56;61.79;97257.53;5035865;28;20049;-60
2023/05/05 07:23:46;;;;;;;1.70;1.70;;;;;;;17.62;59.01;97185.84;5033480;28;20483;-59
2023/05/05 07:26:14;;;;;;;1.90;1.90;;;;;;;17.87;57.42;97234.06;5036474;28;20127;-58
2023/05/05 07:28:41;;;;;;;1.70;1.70;;;;;;;18.18;57.99;97252.59;5024592;28;20160;-56
2023/05/05 07:31:08;;;;;;;1.98;1.98;;;;;;;18.10;57.49;97259.50;5024095;28;20397;-69
2023/05/05 07:33:36;;;;;;;1.70;1.70;;;;;;;17.03;56.62;97159.03;5029828;28;20071;-62
2023/05/05 07:36:03;;;;;;;1.52;1.52;;;;;;;17.80;57.99;97256.53;5042805;28;20056;-58
2023/05/05 07:38:30;;;;;;;1.55;1.55;;;;;;;17.80;58.37;97259.34;5023105;28;20049;-62
2023/05/05 07:40:57;;;;;;;1.90;1.90;;;;;;;17.19;58.33;97246.13;5026659;28;20513;-61
2023/05/05 07:43:23;;;;;;;1.50;1.50;;;;;;;17.62;57.59;97261.50;5043770;28;20057;-57
2023/05/05 07:45:50;;;;;;;1.80;1.80;;;;;;;17.74;57.83;97261.81;5042421;28;20110;-58
2023/05/05 07:48:17;;;;;;;1.70;1.70;;;;;;;17.58;57.80;97246.69;5024249;28;20107;-66
2023/05/05 07:50:43;;;;;;;1.95;1.95;;;;;;;17.54;57.15;97257.16;5026010;28;20053;-64
2023/05/05 07:53:10;;;;;;;1.60;1.60;;;;;;;17.76;57.95;97252.97;5023542;28;20053;-66
2023/05/05 07:55:41;;;;;;;1.70;1.70;;;;;;;17.98;57.56;97254.41;5038671;28;20440;-62
2023/05/05 07:58:09;;;;;;;1.60;1.60;;;;;;;17.54;58.04;97262.75;5038805;28;20049;-58
2023/05/05 08:00:37;;;;;;;1.60;1.60;;;;;;;17.37;58.28;97269.22;5035431;28;20045;-62
2023/05/05 08:03:04;;;;;;;1.48;1.48;;;;;;;17.02;59.36;97213.44;5024603;28;20137;-61
2023/05/05 08:05:31;;;;;;;1.48;1.48;;;;;;;17.69;57.63;97267.03;5022840;28;20053;-61
2023/05/05 08:07:57;;;;;;;1.60;1.60;;;;;;;17.95;57.05;97258.03;5034798;28;20558;-63
2023/05/05 08:10:24;;;;;;;1.80;1.80;;;;;;;17.79;58.05;97241.75;5040830;28;20056;-60
2023/05/05 08:12:51;;;;;;;1.80;1.80;;;;;;;15.11;56.78;96810.34;5028155;28;20044;-61
2023/05/05 08:15:18;;;;;;;1.73;1.73;;;;;;;17.86;55.65;97280.13;5048230;28;20191;-60
2023/05/05 08:17:50;;;;;;;1.70;1.70;;;;;;;17.88;55.48;97272.09;5022894;28;20060;-62
2023/05/05 08:20:19;;;;;;;1.80;1.80;;;;;;;17.91;55.45;97237.63;5036988;28;20049;-63
2023/05/05 08:22:46;;;;;;;1.60;1.60;;;;;;;18.39;55.12;97255.25;5034563;28;20102;-64
2023/05/05 08:25:13;;;;;;;1.63;1.63;;;;;;;17.74;55.15;97174.94;5034364;28;20049;-59
2023/05/05 08:27:41;;;;;;;1.70;1.70;;;;;;;18.58;54.79;97249.03;5053415;28;20479;-60
2023/05/05 08:30:08;;;;;;;1.85;1.85;;;;;;;17.97;54.99;97188.34;5030084;28;20050;-57
2023/05/05 08:32:35;;;;;;;1.60;1.60;;;;;;;18.72;52.91;97248.88;5024611;28;20508;-60
2023/05/05 08:35:03;;;;;;;1.80;1.80;;;;;;;18.19;53.97;97198.13;5039034;28;20053;-59
2023/05/05 08:37:30;;;;;;;1.60;1.60;;;;;;;17.79;53.73;97152.06;5023401;28;20072;-66
2023/05/05 08:39:57;;;;;;;1.58;1.58;;;;;;;18.15;54.58;97177.72;5025873;28;20057;-59
2023/05/05 08:42:24;;;;;;;1.75;1.75;;;;;;;18.36;53.40;97157.88;5038568;28;20552;-64
2023/05/05 08:45:04;;;;;;;1.95;1.95;;;;;;;19.41;53.31;97237.94;5023944;28;20639;-72
2023/05/05 08:47:31;;;;;;;1.73;1.73;;;;;;;19.15;52.50;97246.31;5025769;28;20045;-60
2023/05/05 08:49:59;;;;;;;1.67;1.67;;;;;;;19.06;53.08;97249.63;5031923;28;20059;-62
2023/05/05 08:52:29;;;;;;;1.70;1.70;;;;;;;18.98;52.92;97185.59;5033250;28;20474;-66
2023/05/05 08:55:18;;;;;;;1.80;1.80;;;;;;;18.48;52.47;97123.69;5046520;28;20052;-61
2023/05/05 08:57:55;;;;;;;1.77;1.77;;;;;;;19.46;51.46;97243.09;5047042;28;20565;-62
2023/05/05 09:00:25;;;;;;;2.10;2.10;;;;;;;19.63;50.52;97195.47;5045686;28;20049;-59
2023/05/05 09:02:55;;;;;;;1.70;1.70;;;;;;;19.72;50.48;97243.50;5047545;28;20103;-67
2023/05/05 09:05:22;;;;;;;1.75;1.75;;;;;;;19.65;50.41;97193.03;5048395;28;20060;-60
2023/05/05 09:07:49;;;;;;;1.80;1.80;;;;;;;19.33;51.06;97194.31;5041130;28;20508;-65
2023/05/05 09:10:16;;;;;;;1.90;1.90;;;;;;;19.01;51.23;97165.09;5043101;28;20072;-63
2023/05/05 09:12:43;;;;;;;1.80;1.80;;;;;;;19.14;51.57;97241.94;5033966;28;20511;-72
2023/05/05 09:15:12;;;;;;;1.92;1.92;;;;;;;19.39;52.18;97246.00;5047515;28;20128;-63
2023/05/05 09:17:40;;;;;;;2.00;2.00;;;;;;;19.24;51.22;97179.97;5047201;28;20049;-66
2023/05/05 09:20:12;;;;;;;1.90;1.90;;;;;;;19.32;50.76;97206.78;5042720;28;20063;-59
2023/05/05 09:22:44;;;;;;;1.90;1.90;;;;;;;19.23;51.80;97245.81;5044639;28;20056;-62
2023/05/05 09:25:17;;;;;;;1.88;1.88;;;;;;;19.58;51.83;97233.28;5043749;28;20115;-59
2023/05/05 09:27:45;;;;;;;;;;;;;;;19.86;50.92;97238.47;5041032;28;20523;-63
2023/05/05 09:30:25;;;;;;;2.05;2.05;;;;;;;20.14;50.52;97228.81;5026731;28;19932;-64
2023/05/05 09:32:53;;;;;;;2.08;2.08;;;;;;;19.83;49.28;97199.16;5026365;28;20440;-62
2023/05/05 09:35:22;;;;;;;1.80;1.80;;;;;;;19.09;51.37;97155.34;5027153;28;20661;-62
2023/05/05 09:37:48;;;;;;;1.77;1.77;;;;;;;19.06;51.19;97224.34;5034862;28;20735;-62
2023/05/05 09:40:17;;;;;;;1.90;1.90;;;;;;;19.64;51.12;97236.41;5047056;28;20041;-64
2023/05/05 09:42:45;;;;;;;1.95;1.95;;;;;;;19.96;48.85;97225.44;5044139;28;20539;-67
2023/05/05 09:45:17;;;;;;;1.80;1.80;;;;;;;19.97;47.27;97227.03;5040296;28;20114;-62
2023/05/05 09:47:45;;;;;;;1.93;1.93;;;;;;;20.18;48.96;97215.44;5026355;28;20057;-58
2023/05/05 09:50:14;;;;;;;2.50;2.40;;;;;;;19.80;48.63;97112.88;5028870;28;20057;-62
2023/05/05 09:52:42;;;;;;;1.90;1.90;;;;;;;19.44;47.19;97054.47;5042048;28;20064;-70
2023/05/05 09:55:29;;;;;;;1.90;1.90;;;;;;;20.12;49.05;97211.53;5025333;28;20053;-60
2023/05/05 09:57:57;;;;;;;2.05;2.05;;;;;;;17.58;48.88;96904.94;5026601;28;20519;-58
2023/05/05 10:00:37;;;;;;;1.88;1.88;;;;;;;20.03;47.11;97216.91;5034702;28;20056;-65
2023/05/05 10:03:04;;;;;;;2.17;2.17;;;;;;;19.83;48.09;97232.91;5038034;28;20139;-70
2023/05/05 10:05:31;;;;;;;2.00;2.00;;;;;;;19.48;48.62;97159.19;5026292;28;20046;-71
2023/05/05 10:08:14;;;;;;;1.90;1.90;;;;;;;20.66;47.32;97218.56;5026114;28;20504;-70
2023/05/05 10:10:54;;;;;;;1.77;1.77;;;;;;;19.81;49.42;97229.72;5025894;28;20132;-69
2023/05/05 10:13:23;;;;;;;2.17;2.17;;;;;;;20.78;47.24;97215.91;5025448;28;20053;-59
2023/05/05 10:15:54;;;;;;;1.92;1.92;;;;;;;20.70;47.35;97208.81;5025965;28;20131;-69
2023/05/05 10:18:27;;;;;;;2.20;2.20;;;;;;;20.66;48.13;97165.09;5024950;28;20042;-69
2023/05/05 10:21:01;;;;;;;1.70;1.70;;;;;;;20.90;47.73;97200.34;5026644;28;20278;-59
2023/05/05 10:23:38;;;;;;;1.98;1.98;;;;;;;20.49;47.61;97197.16;5041249;28;20136;-69
2023/05/05 10:26:06;;;;;;;2.28;2.28;;;;;;;21.14;47.32;97215.97;5026402;28;20045;-58
2023/05/05 10:28:42;;;;;;;2.00;2.00;;;;;;;21.31;46.58;97209.16;5026221;28;20056;-59
2023/05/05 10:31:16;;;;;;;2.13;2.13;;;;;;;21.81;45.40;97194.72;5025846;28;20503;-60
2023/05/05 10:33:58;;;;;;;2.40;2.30;;;;;;;22.12;45.65;97196.72;5025680;28;20111;-69
2023/05/05 10:36:27;;;;;;;2.22;2.22;;;;;;;21.41;45.67;97143.28;5024835;28;20115;-69
2023/05/05 10:38:58;;;;;;;2.60;2.50;;;;;;;21.51;45.72;97197.84;5024527;28;20261;-59
2023/05/05 10:41:25;;;;;;;2.45;2.35;;;;;;;21.02;45.60;97202.56;5024688;28;20528;-58
2023/05/05 10:43:55;;;;;;;2.13;2.13;;;;;;;21.07;46.20;97181.53;5027609;28;20518;-67
2023/05/05 10:46:22;;;;;;;2.08;2.08;;;;;;;20.32;47.43;97136.41;5037045;28;20098;-63
2023/05/05 10:48:58;;;;;;;2.10;2.10;;;;;;;20.40;47.55;97166.81;5043940;28;20048;-64
2023/05/05 10:51:35;;;;;;;2.28;2.28;;;;;;;21.11;46.27;97188.66;5033030;28;20057;-63
2023/05/05 10:54:38;;;;;;;2.22;2.22;;;;;;;20.98;47.18;97184.94;5024232;28;20080;-62
2023/05/05 10:57:09;;;;;;;2.25;2.25;;;;;;;21.30;46.94;97185.03;5020603;28;20072;-58
2023/05/05 10:59:36;;;;;;;2.10;2.10;;;;;;;21.27;48.15;97191.53;5026148;28;20515;-66
2023/05/05 11:02:28;;;;;;;2.22;2.22;;;;;;;21.26;47.25;97189.16;5025226;28;20057;-64
2023/05/05 11:05:21;;;;;;;1.98;1.98;;;;;;;21.56;46.60;97184.00;5022933;28;20180;-63
2023/05/05 11:07:49;;;;;;;2.25;2.25;;;;;;;21.23;47.21;97151.34;5044622;28;20520;-68
2023/05/05 11:10:22;;;;;;;2.42;2.35;;;;;;;20.92;45.79;97057.88;5040386;28;20723;-64
2023/05/05 11:13:09;;;;;;;2.15;2.15;;;;;;;21.92;45.24;97170.66;5032344;28;20123;-69
2023/05/05 11:15:36;;;;;;;2.50;2.40;;;;;;;22.22;44.54;97173.06;5021249;28;20140;-63
2023/05/05 11:18:05;;;;;;;2.10;2.10;;;;;;;21.16;45.39;97133.81;5026503;28;20253;-63
2023/05/05 11:20:40;;;;;;;2.30;2.30;;;;;;;21.44;44.78;97164.97;5029237;28;20402;-64
2023/05/05 11:23:06;;;;;;;2.30;2.30;;;;;;;20.89;46.17;97156.53;5032700;28;20077;-73
2023/05/05 11:25:33;;;;;;;2.00;2.00;;;;;;;20.81;47.11;97158.72;5039667;28;20057;-67
2023/05/05 11:28:13;;;;;;;2.10;2.10;;;;;;;20.61;46.83;97165.59;5028168;28;20172;-62
2023/05/05 11:30:57;;;;;;;1.80;1.80;;;;;;;20.92;47.54;97158.47;5043119;28;20060;-61
2023/05/05 11:33:31;;;;;;;2.10;2.10;;;;;;;21.33;45.80;97160.78;5031959;28;20447;-62
2023/05/05 11:35:58;;;;;;;;;;;;;;;20.16;47.61;97148.38;5037025;28;20056;-63
2023/05/05 11:38:40;;;;;;;1.90;1.90;;;;;;;20.27;48.02;97151.78;5034922;28;19998;-69
2023/05/05 11:41:17;;;;;;;2.00;2.00;;;;;;;21.08;46.68;97144.47;5031341;28;20308;-67
2023/05/05 11:43:44;;;;;;;2.50;2.40;;;;;;;21.76;44.65;97099.34;5043254;28;20060;-65
2023/05/05 11:46:13;;;;;;;2.13;2.13;;;;;;;21.42;45.10;97136.41;5027659;28;20057;-66
2023/05/05 11:48:47;;;;;;;1.98;1.98;;;;;;;18.19;48.32;96858.84;5024108;28;20339;-60